This is the latest recevied weather packets stored in our database for station/object KI4FRU. If no packets are shown the sender has not sent any weather packets the latest 1 day(s).
| Time | Temp. | Humidity | Pressure | Rain* | Wind** | Luminosity | Snow |
|---|---|---|---|---|---|---|---|
| 1778011452 | 27.78° C | 45% | 1053 hPa | 0 mm | 0.45 m/s, 34° | 431 W/m² | - |
| 1778011148 | 28.33° C | 44% | 1053.4 hPa | 0 mm | 0.45 m/s, 182° | 470 W/m² | - |
| 1778010846 | 29.44° C | 48% | 1053.3 hPa | 0 mm | 0 m/s | 102 W/m² | - |
| 1778010543 | 28.33° C | 43% | 1053.4 hPa | 0 mm | 0.45 m/s, 157° | 580 W/m² | - |
| 1778010240 | 28.33° C | 44% | 1053.3 hPa | 0 mm | 0 m/s | 273 W/m² | - |
| 1778009935 | 27.78° C | 48% | 1053.2 hPa | 0 mm | 0 m/s | 613 W/m² | - |
| 1778009633 | 28.33° C | 46% | 1053.3 hPa | 0 mm | 0 m/s | 546 W/m² | - |
| 1778009330 | 27.78° C | 45% | 1053.3 hPa | 0 mm | 0 m/s | 597 W/m² | - |
| 1778009028 | 27.78° C | 47% | 1053.6 hPa | 0 mm | 0.45 m/s, 28° | 423 W/m² | - |
| 1778008726 | 28.33° C | 40% | 1053.3 hPa | 0 mm | 1.34 m/s, 193° | 610 W/m² | - |
| 1778008424 | 28.33° C | 43% | 1053.5 hPa | 0 mm | 0 m/s | 595 W/m² | - |
| 1778008121 | 28.33° C | 43% | 1053.8 hPa | 0 mm | 0.45 m/s, 283° | 653 W/m² | - |
| 1778007816 | 28.33° C | 45% | 1054 hPa | 0 mm | 0 m/s | 469 W/m² | - |
| 1778007512 | 28.89° C | 45% | 1053.8 hPa | 0 mm | 0.45 m/s, 223° | 630 W/m² | - |
| 1778007209 | 27.22° C | 47% | 1054.1 hPa | 0 mm | 0 m/s | 695 W/m² | - |
| 1778006905 | 27.22° C | 44% | 1054.3 hPa | 0 mm | 0.89 m/s, 166° | 537 W/m² | - |
| 1778006602 | 27.78° C | 44% | 1054.2 hPa | 0 mm | 0 m/s | 683 W/m² | - |
| 1778006299 | 28.89° C | 47% | 1054.2 hPa | 0 mm | 0 m/s | 100 W/m² | - |
| 1778005996 | 28.89° C | 46% | 1054.1 hPa | 0 mm | 0 m/s | 150 W/m² | - |
| 1778005692 | 27.22° C | 48% | 1054.1 hPa | 0 mm | 0 m/s | 414 W/m² | - |
| 1778005389 | 26.67° C | 46% | 1054.5 hPa | 0 mm | 0.45 m/s, 343° | 516 W/m² | - |
| 1778005086 | 25.56° C | 49% | 1054.6 hPa | 0 mm | 0 m/s | 384 W/m² | - |
| 1778004783 | 27.22° C | 46% | 1054.3 hPa | 0 mm | 0.45 m/s, 5° | 298 W/m² | - |
| 1778004480 | 27.78° C | 45% | 1054.7 hPa | 0 mm | 1.34 m/s, 222° | 550 W/m² | - |
| 1778004176 | 27.78° C | 48% | 1054.7 hPa | 0 mm | 0 m/s | 242 W/m² | - |
* Rain latest hour (hover to see other rain measurements)
** Current wind speed in m/s (hover to see current wind gust speed)